Saint Leonard, MD

8:59 PM EDT on September 20, 2014 (GMT -0400)
St. Leonard | Change Station
CLOSE
Current Station
Personal Weather Station
Location: Saint Leonard, MD
Elevation: 154 ft
Nearby Weather Stations
Active Advisory: Coastal Flood Advisory

Elev 154 ft 38.49 °N, 76.51 °W | Updated 1 minute ago

Clear
Clear
68.5 °F
Feels Like 68.5 °F
N
0.0
Wind Variable Wind from West
Gusts 0.0 mph

Today
High -- | Low -- °F
--% Chance of Precip.
Yesterday
High -- | Low -- °F
Precip. -- in
6:52 AM 7:06 PM
Waning Crescent, 9% visible
Pressure 30.09 in
Visibility 10.0 miles
Clouds Clear
Dew Point 64 °F
Humidity 85%
Rainfall 0.00 in
Snow Depth Not available.
UV 0 out of 12
Pollen 4.10 out of 12
Air Quality Not available.
Flu Activity Not available.
METAR K2W6 210042Z AUTO 00000KT 10SM CLR 20/15 A3009 RMK AO1

More Conditions Fewer Conditions

Pressure 30.09 in
Visibility 10.0 miles
Clouds Clear
Dew Point 64 °F
Humidity 85%
Rainfall 0.00 in
Snow Depth Not available.
UV 0 out of 12
Pollen 4.10 out of 12
Air Quality Not available.
Flu Activity Not available.
METAR K2W6 210042Z AUTO 00000KT 10SM CLR 20/15 A3009 RMK AO1

More Conditions Fewer Conditions

10-Day Weather Forecast

Almanac

Astronomy

Sep. 20, 2014 Rise Set
Actual Time 6:52 AM EDT 7:06 PM EDT
Civil Twilight 6:25 AM EDT 7:32 PM EDT
Nautical Twilight 5:54 AM EDT 8:03 PM EDT
Astronomical Twilight 5:22 AM EDT 8:35 PM EDT
Moon 3:31 AM EDT (9/20) 5:06 PM EDT (9/20)
Length of Visible Light 13h 07m
Length of Day
12h 14m
Tomorrow will be 2m 28s shorter.
Waning Crescent, 9% of the Moon is Illuminated
Today
Waning Crescent
Sep 24
New
Oct 1
First Quarter
Oct 8
Full
Oct 15
Last Quarter

Today's Extremes

State Highs State Lows

Community

WunderPhotos

Upload Photos

1,755,000 photos uploaded!

WunderBlogs® & News

Nearby

Snow Depth

Station Depth Elevation
No new snow has been reported.

Earthquake Activity

City Distance Mag. Time & Date
No recent earthquake activity has been reported nearby.
Minimum magnitude displayed is 2.5.

Coastal Water Temperatures

Place Temperature
Solomons Island, MD 77.0 °F
Lewisetta, VA 75.0 °F

Nearby Weather Stations